Time;durP1;ratioP1;P1;durP2;ratioP2;P2;SDS_P1;SDS_P2;PMS_P1;PMS_P2;Temp;Humidity;BMP_temperature;BMP_pressure;BME280_temperature;BME280_humidity;BME280_pressure;Samples;Min_cycle;Max_cycle;Signal;HPM_P1;HPM_P2
2021/01/08 00:00:50;;;;;;;24.25;13.80;;;;;;;1.64;67.23;95332.66;4771614;30;20066;-44
2021/01/08 00:03:17;;;;;;;22.05;12.82;;;;;;;1.60;66.81;95346.88;4792638;24;20047;-53
2021/01/08 00:05:43;;;;;;;21.55;13.52;;;;;;;1.56;67.00;95330.69;4770367;29;20098;-48
2021/01/08 00:08:10;;;;;;;21.58;13.32;;;;;;;1.42;67.30;95329.78;4766045;30;20455;-49
2021/01/08 00:10:36;;;;;;;25.83;14.20;;;;;;;1.56;67.11;95327.19;4767192;30;20063;-50
2021/01/08 00:13:03;;;;;;;21.55;13.48;;;;;;;1.50;66.93;95320.38;4767156;30;20056;-51
2021/01/08 00:15:29;;;;;;;25.30;13.70;;;;;;;1.52;67.16;95324.31;4767503;29;20506;-50
2021/01/08 00:17:55;;;;;;;22.23;13.43;;;;;;;1.38;66.87;95321.59;4761438;30;20074;-51
2021/01/08 00:20:22;;;;;;;22.85;13.00;;;;;;;1.36;67.51;95318.41;4752011;29;20060;-47
2021/01/08 00:22:48;;;;;;;22.70;13.38;;;;;;;1.40;67.52;95322.09;4768718;29;20430;-51
2021/01/08 00:25:15;;;;;;;23.58;13.70;;;;;;;1.48;67.21;95322.53;4771355;30;20139;-50
2021/01/08 00:27:41;;;;;;;22.60;13.38;;;;;;;1.46;67.24;95320.13;4769547;30;20051;-50
2021/01/08 00:30:09;;;;;;;21.80;12.70;;;;;;;1.56;66.57;95324.53;4770711;30;20528;-50
2021/01/08 00:32:36;;;;;;;23.67;13.35;;;;;;;1.43;67.25;95323.41;4767202;30;20052;-48
2021/01/08 00:35:03;;;;;;;20.90;12.23;;;;;;;1.47;66.73;95313.75;4770800;30;20090;-50
2021/01/08 00:37:30;;;;;;;26.38;13.40;;;;;;;1.54;66.69;95316.03;4755626;29;20501;-50
2021/01/08 00:39:57;;;;;;;24.38;13.93;;;;;;;1.50;66.37;95313.16;4768683;30;20052;-49
2021/01/08 00:42:23;;;;;;;23.08;13.52;;;;;;;1.50;66.93;95315.03;4770251;29;20429;-48
2021/01/08 00:44:49;;;;;;;25.80;12.95;;;;;;;1.41;67.02;95312.22;4769706;30;20056;-49
2021/01/08 00:47:16;;;;;;;20.92;13.20;;;;;;;1.37;67.41;95316.56;4769225;29;20120;-50
2021/01/08 00:49:43;;;;;;;23.23;13.73;;;;;;;1.42;66.94;95294.34;4769785;30;20071;-49
2021/01/08 00:52:09;;;;;;;26.85;14.57;;;;;;;1.45;67.12;95315.09;4768549;30;20056;-50
2021/01/08 00:54:36;;;;;;;22.48;12.75;;;;;;;1.24;67.75;95306.63;4770315;30;20124;-51
2021/01/08 00:57:19;;;;;;;;;;;;;;;1.26;67.42;95305.22;4752516;30;20072;-50
2021/01/08 00:59:47;;;;;;;23.42;13.50;;;;;;;1.17;67.67;95307.78;4768927;30;19926;-50
2021/01/08 01:02:13;;;;;;;20.75;11.90;;;;;;;1.18;68.01;95308.56;4768874;30;20546;-50
2021/01/08 01:04:40;;;;;;;23.08;13.70;;;;;;;1.25;68.21;95308.19;4768518;29;20113;-48
2021/01/08 01:07:07;;;;;;;23.15;13.25;;;;;;;1.23;68.14;95303.13;4770345;30;20071;-50
2021/01/08 01:09:33;;;;;;;22.80;14.05;;;;;;;1.21;67.77;95313.31;4764178;30;20106;-49
2021/01/08 01:12:00;;;;;;;22.92;13.57;;;;;;;1.20;67.79;95317.03;4768867;30;20445;-48
2021/01/08 01:14:26;;;;;;;23.10;13.43;;;;;;;1.20;67.82;95313.59;4759194;30;20092;-51
2021/01/08 01:16:52;;;;;;;24.80;13.75;;;;;;;1.27;67.32;95319.34;4762418;30;20135;-48
2021/01/08 01:19:19;;;;;;;24.17;14.18;;;;;;;1.20;67.81;95325.03;4765789;29;20870;-52
2021/01/08 01:21:46;;;;;;;24.65;14.15;;;;;;;1.28;67.68;95329.72;4767870;29;20062;-50
2021/01/08 01:24:12;;;;;;;26.63;14.25;;;;;;;1.33;67.73;95329.66;4762342;30;20142;-47
2021/01/08 01:26:38;;;;;;;24.40;13.77;;;;;;;1.20;67.64;95327.69;4766539;29;20055;-49
2021/01/08 01:29:05;;;;;;;21.80;13.15;;;;;;;1.31;67.68;95329.16;4767136;29;20055;-48
2021/01/08 01:31:32;;;;;;;21.98;12.93;;;;;;;1.28;67.94;95324.41;4754605;30;20055;-49
2021/01/08 01:33:58;;;;;;;24.67;13.68;;;;;;;1.34;67.03;95325.91;4761447;29;20052;-50
2021/01/08 01:36:25;;;;;;;23.70;13.38;;;;;;;1.37;67.29;95328.00;4769741;30;20078;-51
2021/01/08 01:38:51;;;;;;;23.40;12.73;;;;;;;1.28;67.17;95335.06;4766485;30;20104;-51
2021/01/08 01:41:18;;;;;;;22.17;13.07;;;;;;;1.34;67.57;95343.78;4769618;30;20064;-50
2021/01/08 01:43:44;;;;;;;22.85;13.52;;;;;;;1.34;66.98;95338.47;4768310;30;20102;-51
2021/01/08 01:46:20;;;;;;;24.35;13.70;;;;;;;1.14;67.69;95340.31;4769398;30;20062;-53
2021/01/08 01:48:49;;;;;;;22.92;12.85;;;;;;;1.21;67.46;95339.16;4769006;30;20059;-49
2021/01/08 01:51:18;;;;;;;20.90;12.98;;;;;;;1.44;67.03;95350.84;4768665;30;20146;-49
2021/01/08 01:53:45;;;;;;;21.48;12.85;;;;;;;1.48;66.66;95344.66;4767404;30;20499;-53
2021/01/08 01:56:11;;;;;;;23.23;12.57;;;;;;;1.48;66.60;95349.97;4768711;30;20052;-50
2021/01/08 01:58:37;;;;;;;22.77;12.77;;;;;;;1.46;66.50;95343.34;4767172;30;20091;-51
2021/01/08 02:01:04;;;;;;;22.20;13.13;;;;;;;1.32;66.92;95340.59;4768927;29;20079;-49
2021/01/08 02:03:44;;;;;;;22.73;13.73;;;;;;;1.32;67.40;95344.06;4767692;30;20058;-50
2021/01/08 02:06:13;;;;;;;20.90;12.43;;;;;;;1.23;67.04;95327.13;4768991;30;20056;-53
2021/01/08 02:08:44;;;;;;;19.95;12.45;;;;;;;1.22;67.49;95344.19;4767729;29;20064;-50
2021/01/08 02:11:13;;;;;;;24.27;12.73;;;;;;;1.22;67.23;95335.41;4768594;30;20094;-48
2021/01/08 02:13:48;;;;;;;21.83;12.77;;;;;;;1.26;67.36;95337.22;4766885;29;20132;-50
2021/01/08 02:16:15;;;;;;;21.50;11.88;;;;;;;1.07;67.68;95339.88;4768856;29;20058;-50
2021/01/08 02:18:45;;;;;;;21.98;13.18;;;;;;;1.09;68.36;95343.03;4768000;29;20079;-49
2021/01/08 02:21:20;;;;;;;24.20;13.38;;;;;;;1.22;67.49;95340.75;4768822;30;20079;-49
2021/01/08 02:23:57;;;;;;;24.73;14.18;;;;;;;1.25;67.66;95338.31;4766595;30;20252;-51
2021/01/08 02:26:25;;;;;;;23.00;14.02;;;;;;;1.23;67.14;95337.00;4753801;30;20139;-48
2021/01/08 02:28:52;;;;;;;22.85;13.00;;;;;;;1.19;67.55;95336.78;4765062;30;20060;-49
2021/01/08 02:31:19;;;;;;;23.80;12.82;;;;;;;1.02;67.64;95339.94;4765611;30;20110;-50
2021/01/08 02:33:45;;;;;;;24.38;12.55;;;;;;;0.92;68.35;95332.06;4767269;29;20577;-53
2021/01/08 02:36:12;;;;;;;22.33;13.23;;;;;;;1.09;67.94;95343.03;4768611;29;20052;-52
2021/01/08 02:38:40;;;;;;;22.08;12.50;;;;;;;1.09;68.16;95342.25;4767516;30;20081;-51
2021/01/08 02:41:09;;;;;;;22.83;13.23;;;;;;;1.13;68.23;95335.25;4769238;30;20651;-51
2021/01/08 02:43:37;;;;;;;21.95;12.52;;;;;;;1.07;67.80;95334.56;4766594;30;20113;-51
2021/01/08 02:46:04;;;;;;;22.65;13.80;;;;;;;1.04;68.47;95335.13;4768038;30;20142;-51
2021/01/08 02:48:31;;;;;;;23.38;13.07;;;;;;;1.13;68.12;95333.38;4768256;29;20124;-50
2021/01/08 02:50:57;;;;;;;22.65;13.10;;;;;;;0.99;67.77;95335.16;4767474;29;20099;-50
2021/01/08 02:53:26;;;;;;;22.42;12.90;;;;;;;1.03;67.86;95330.84;4767483;29;20083;-51
2021/01/08 02:55:58;;;;;;;21.67;12.57;;;;;;;0.96;68.21;95317.09;4767352;29;20060;-50
2021/01/08 02:58:26;;;;;;;22.10;13.07;;;;;;;0.98;68.25;95335.47;4767602;29;20091;-52
2021/01/08 03:00:53;;;;;;;22.77;13.13;;;;;;;1.03;67.90;95328.19;4766891;30;20098;-53
2021/01/08 03:03:23;;;;;;;24.70;13.70;;;;;;;1.10;67.81;95335.81;4767168;29;20468;-53
2021/01/08 03:05:50;;;;;;;25.08;13.82;;;;;;;1.04;67.31;95329.78;4767585;30;20083;-51
2021/01/08 03:08:17;;;;;;;21.83;12.45;;;;;;;0.92;68.14;95334.75;4766929;29;20142;-49
2021/01/08 03:10:43;;;;;;;24.33;13.50;;;;;;;1.17;67.68;95336.28;4766440;30;20138;-49
2021/01/08 03:13:11;;;;;;;24.00;13.20;;;;;;;1.22;67.70;95343.41;4766183;29;20052;-51
2021/01/08 03:15:37;;;;;;;22.38;13.50;;;;;;;1.16;67.21;95332.03;4758727;30;20051;-50
2021/01/08 03:18:05;;;;;;;23.15;13.68;;;;;;;0.98;67.52;95314.16;4766688;30;20494;-53
2021/01/08 03:20:31;;;;;;;24.52;13.45;;;;;;;0.77;68.16;95309.06;4765743;30;20436;-52
2021/01/08 03:22:58;;;;;;;24.85;14.48;;;;;;;0.80;68.21;95329.81;4780952;30;20186;-49
2021/01/08 03:25:24;;;;;;;22.70;13.40;;;;;;;0.91;68.82;95325.97;4767357;29;20055;-50
2021/01/08 03:27:50;;;;;;;22.67;13.48;;;;;;;0.87;68.58;95329.47;4762354;29;20123;-54
2021/01/08 03:30:17;;;;;;;23.67;13.95;;;;;;;0.68;69.28;95326.75;4767045;29;20083;-49
2021/01/08 03:32:44;;;;;;;24.48;14.50;;;;;;;0.76;69.17;95328.00;4764674;30;20135;-53
2021/01/08 03:35:11;;;;;;;22.08;13.45;;;;;;;0.51;69.63;95329.06;4765079;30;20059;-52
2021/01/08 03:37:37;;;;;;;25.02;14.30;;;;;;;0.71;69.20;95320.84;4766578;29;20416;-54
2021/01/08 03:40:07;;;;;;;23.98;13.82;;;;;;;0.69;69.24;95328.34;4767369;30;20131;-53
2021/01/08 03:42:34;;;;;;;25.95;14.73;;;;;;;0.66;69.51;95336.91;4765209;30;20078;-53
2021/01/08 03:45:01;;;;;;;24.55;14.38;;;;;;;0.69;69.58;95328.34;4767216;29;20052;-54
2021/01/08 03:47:27;;;;;;;25.23;13.93;;;;;;;0.72;69.14;95327.00;4767604;30;20147;-50
2021/01/08 03:49:53;;;;;;;23.00;13.77;;;;;;;0.87;69.38;95324.91;4768323;30;20066;-50
2021/01/08 03:52:20;;;;;;;24.52;14.52;;;;;;;0.68;69.04;95327.56;4751156;30;20056;-50
2021/01/08 03:54:46;;;;;;;28.00;15.40;;;;;;;0.60;69.16;95306.88;4758560;30;20367;-52
2021/01/08 03:57:13;;;;;;;25.48;14.48;;;;;;;0.58;69.50;95311.69;4763567;30;20098;-50
2021/01/08 03:59:39;;;;;;;25.33;14.25;;;;;;;0.80;68.85;95323.69;4767636;30;20515;-50
2021/01/08 04:02:06;;;;;;;26.75;15.30;;;;;;;0.86;68.95;95310.03;4763961;30;20135;-54
2021/01/08 04:04:33;;;;;;;26.52;14.32;;;;;;;0.70;68.89;95317.41;4762113;30;20063;-52
2021/01/08 04:06:59;;;;;;;26.67;15.45;;;;;;;0.86;68.67;95317.22;4771165;30;20120;-53
2021/01/08 04:09:26;;;;;;;25.70;14.00;;;;;;;0.68;69.18;95318.75;4770438;29;20090;-53
2021/01/08 04:11:52;;;;;;;26.15;14.25;;;;;;;0.67;69.12;95325.97;4767400;29;20056;-51
2021/01/08 04:14:19;;;;;;;24.63;14.73;;;;;;;0.68;69.30;95321.41;4760580;30;20175;-53
2021/01/08 04:16:45;;;;;;;28.17;15.02;;;;;;;0.76;68.89;95317.34;4769687;30;20083;-54
2021/01/08 04:19:12;;;;;;;27.95;15.73;;;;;;;0.68;69.21;95329.41;4765374;29;20086;-51
2021/01/08 04:21:39;;;;;;;24.05;13.82;;;;;;;0.67;68.99;95320.63;4768945;30;20524;-52
2021/01/08 04:24:07;;;;;;;26.23;15.80;;;;;;;0.55;69.83;95322.09;4771467;29;20071;-52
2021/01/08 04:26:34;;;;;;;27.48;15.77;;;;;;;0.29;69.42;95263.84;4771216;30;20062;-51
2021/01/08 04:29:00;;;;;;;26.52;15.57;;;;;;;0.70;69.44;95325.38;4770070;30;20087;-50
2021/01/08 04:31:26;;;;;;;26.92;14.68;;;;;;;0.69;69.35;95328.34;4770373;29;20055;-49
2021/01/08 04:33:53;;;;;;;27.40;15.00;;;;;;;0.63;69.87;95329.47;4770749;29;20063;-50
2021/01/08 04:36:20;;;;;;;27.25;15.30;;;;;;;0.67;69.93;95325.97;4769291;30;20147;-51
2021/01/08 04:38:47;;;;;;;25.60;14.93;;;;;;;0.77;69.61;95345.56;4770486;30;20134;-52
2021/01/08 04:41:14;;;;;;;27.90;15.07;;;;;;;0.90;69.00;95318.22;4769070;30;20059;-51
2021/01/08 04:43:40;;;;;;;25.55;14.98;;;;;;;1.07;68.63;95329.22;4770451;29;20542;-53
2021/01/08 04:46:16;;;;;;;29.00;16.20;;;;;;;0.91;69.10;95325.13;4769360;30;20051;-52
2021/01/08 04:48:44;;;;;;;30.08;15.55;;;;;;;0.67;70.22;95325.97;4770468;29;20522;-54
2021/01/08 04:51:14;;;;;;;28.40;15.48;;;;;;;0.61;70.55;95324.44;4763762;30;20057;-52
2021/01/08 04:53:41;;;;;;;26.60;15.45;;;;;;;0.61;70.24;95321.75;4770595;30;20086;-52
2021/01/08 04:56:12;;;;;;;26.45;15.38;;;;;;;0.72;70.50;95333.13;4769879;29;20134;-50
2021/01/08 04:58:38;;;;;;;27.55;15.00;;;;;;;0.85;69.75;95342.28;4769006;29;20068;-51
2021/01/08 05:01:05;;;;;;;27.60;15.27;;;;;;;0.66;69.84;95324.38;4769308;30;20066;-53
2021/01/08 05:03:32;;;;;;;27.33;15.27;;;;;;;0.42;70.21;95337.69;4766340;30;20115;-51
2021/01/08 05:05:59;;;;;;;27.60;16.13;;;;;;;0.39;71.25;95330.28;4770258;29;20131;-54
2021/01/08 05:08:26;;;;;;;29.17;16.83;;;;;;;0.32;70.99;95315.69;4762570;29;20052;-53
2021/01/08 05:10:55;;;;;;;28.55;15.40;;;;;;;0.58;70.47;95327.66;4770787;29;20056;-52
2021/01/08 05:13:31;;;;;;;26.70;15.45;;;;;;;0.70;70.15;95330.72;4770382;29;20056;-55
2021/01/08 05:16:01;;;;;;;26.10;14.88;;;;;;;0.87;69.31;95330.25;4765908;29;20154;-50
2021/01/08 05:18:30;;;;;;;25.30;14.82;;;;;;;0.93;69.06;95328.31;4766341;30;20078;-51
2021/01/08 05:20:57;;;;;;;25.45;14.70;;;;;;;0.88;68.79;95347.03;4769659;30;20125;-54
2021/01/08 05:23:26;;;;;;;24.85;14.35;;;;;;;0.78;69.12;95300.03;4768931;30;20131;-54
2021/01/08 05:25:53;;;;;;;28.10;15.73;;;;;;;0.83;69.98;95320.47;4768878;29;20051;-55
2021/01/08 05:28:19;;;;;;;26.50;15.05;;;;;;;0.61;70.20;95320.97;4761958;29;20423;-52
2021/01/08 05:30:46;;;;;;;26.27;15.40;;;;;;;0.42;70.68;95313.75;4754688;30;20055;-53
2021/01/08 05:33:15;;;;;;;31.48;16.92;;;;;;;0.54;70.54;95329.31;4769811;30;20120;-52
2021/01/08 05:35:42;;;;;;;27.30;15.43;;;;;;;0.41;70.80;95317.47;4769810;30;20442;-55
2021/01/08 05:38:10;;;;;;;29.08;15.00;;;;;;;0.41;70.72;95324.66;4759730;30;20130;-51
2021/01/08 05:40:41;;;;;;;27.33;15.35;;;;;;;0.68;70.90;95326.75;4768812;29;20139;-52
2021/01/08 05:43:09;;;;;;;25.27;15.05;;;;;;;0.68;70.21;95330.22;4769438;29;20101;-55
2021/01/08 05:45:35;;;;;;;27.08;15.43;;;;;;;0.76;69.75;95330.66;4769631;29;20176;-51
2021/01/08 05:48:04;;;;;;;26.25;15.05;;;;;;;0.81;70.20;95336.72;4765628;29;20086;-52
2021/01/08 05:50:32;;;;;;;25.65;14.73;;;;;;;0.85;69.31;95352.94;4755215;30;20194;-51
2021/01/08 05:53:06;;;;;;;27.25;15.15;;;;;;;0.69;70.32;95342.44;4769344;29;20051;-51
2021/01/08 05:55:38;;;;;;;27.95;15.32;;;;;;;0.63;70.16;95340.13;4768568;30;20121;-50
2021/01/08 05:58:24;;;;;;;26.73;15.13;;;;;;;0.62;70.18;95347.34;4768692;29;20080;-52
2021/01/08 06:00:54;;;;;;;27.30;15.63;;;;;;;0.87;69.62;95345.44;4762639;29;20052;-53
2021/01/08 06:03:22;;;;;;;30.17;15.43;;;;;;;0.58;70.09;95346.28;4760372;30;20130;-51
2021/01/08 06:05:57;;;;;;;29.95;15.63;;;;;;;0.74;70.26;95348.78;4764429;29;20068;-49
2021/01/08 06:08:28;;;;;;;26.77;14.73;;;;;;;0.66;69.98;95340.34;4755769;30;20094;-49
2021/01/08 06:10:57;;;;;;;26.85;14.57;;;;;;;0.65;69.88;95349.44;4757028;30;20066;-52
2021/01/08 06:13:31;;;;;;;26.52;15.25;;;;;;;0.60;70.24;95346.81;4768042;30;20047;-50
2021/01/08 06:15:59;;;;;;;26.20;14.30;;;;;;;0.76;69.92;95343.97;4768964;29;20063;-52
2021/01/08 06:18:27;;;;;;;26.45;15.25;;;;;;;0.91;69.38;95351.78;4767892;29;20126;-50
2021/01/08 06:21:04;;;;;;;26.35;15.52;;;;;;;0.72;69.81;95350.97;4766979;30;20140;-50
2021/01/08 06:23:33;;;;;;;28.75;16.52;;;;;;;0.83;69.54;95345.22;4767166;29;20074;-49
2021/01/08 06:26:00;;;;;;;28.52;16.08;;;;;;;0.68;69.33;95348.03;4769218;30;20059;-50
2021/01/08 06:28:33;;;;;;;29.70;16.55;;;;;;;0.64;70.45;95347.81;4768634;29;20142;-50
2021/01/08 06:31:04;;;;;;;30.42;16.38;;;;;;;0.79;69.75;95354.06;4766131;30;20079;-49
2021/01/08 06:33:35;;;;;;;26.98;15.15;;;;;;;0.77;70.45;95351.69;4754249;30;20059;-50
2021/01/08 06:36:14;;;;;;;25.60;13.77;;;;;;;0.86;69.54;95355.31;4778324;29;20128;-49
2021/01/08 06:38:45;;;;;;;27.15;15.30;;;;;;;0.99;69.37;95356.47;4763816;30;20125;-49
2021/01/08 06:41:14;;;;;;;27.05;15.23;;;;;;;0.99;68.97;95355.69;4763584;30;20147;-49
2021/01/08 06:43:45;;;;;;;27.35;14.88;;;;;;;0.86;69.37;95357.19;4753550;30;20108;-49
2021/01/08 06:46:24;;;;;;;25.33;15.05;;;;;;;0.73;69.71;95333.91;4767094;29;20591;-51
2021/01/08 06:48:56;;;;;;;26.55;14.77;;;;;;;0.78;69.78;95339.97;4768387;30;20052;-50
2021/01/08 06:51:28;;;;;;;26.27;14.25;;;;;;;0.91;69.71;95357.09;4765857;30;20047;-49
2021/01/08 06:53:56;;;;;;;28.17;15.32;;;;;;;0.83;69.89;95365.72;4768348;30;20050;-49
2021/01/08 06:56:28;;;;;;;24.13;13.63;;;;;;;0.97;69.57;95361.28;4768112;29;20083;-49
2021/01/08 06:58:55;;;;;;;25.13;13.88;;;;;;;0.61;70.02;95356.38;4767795;29;20052;-47
2021/01/08 07:01:52;;;;;;;24.88;14.40;;;;;;;0.64;71.39;95365.66;4764473;30;20080;-51
2021/01/08 07:04:28;;;;;;;25.27;14.35;;;;;;;0.55;71.08;95370.81;4768892;30;20066;-51
2021/01/08 07:06:57;;;;;;;30.30;17.33;;;;;;;0.60;71.23;95362.78;4767217;29;20056;-48
2021/01/08 07:09:34;;;;;;;24.67;13.50;;;;;;;0.48;71.54;95365.03;4768477;29;20059;-51
2021/01/08 07:12:02;;;;;;;23.85;13.35;;;;;;;0.36;72.15;95372.63;4759361;30;20060;-48
2021/01/08 07:14:29;;;;;;;25.63;13.35;;;;;;;0.40;71.97;95379.75;4767966;30;20113;-53
2021/01/08 07:16:57;;;;;;;23.45;13.25;;;;;;;0.45;71.85;95381.56;4759977;30;20202;-54
2021/01/08 07:19:27;;;;;;;24.45;13.45;;;;;;;0.65;71.26;95385.88;4762842;30;20059;-54
2021/01/08 07:21:56;;;;;;;22.65;13.00;;;;;;;0.81;70.92;95378.53;4765409;30;20140;-55
2021/01/08 07:24:29;;;;;;;24.33;12.57;;;;;;;0.62;71.62;95394.47;4768586;30;20113;-50
2021/01/08 07:27:15;;;;;;;21.30;12.27;;;;;;;0.64;71.33;95395.75;4763380;30;20064;-54
2021/01/08 07:29:58;;;;;;;20.58;12.00;;;;;;;0.68;71.68;95391.47;4753169;30;20051;-54
2021/01/08 07:32:33;;;;;;;23.13;12.10;;;;;;;0.70;71.57;95394.63;4766905;30;20134;-54
2021/01/08 07:35:20;;;;;;;19.88;11.68;;;;;;;0.86;71.13;95389.91;4768090;30;20200;-55
2021/01/08 07:38:08;;;;;;;21.27;12.57;;;;;;;0.77;71.09;95396.94;4766672;30;20059;-50
2021/01/08 07:40:35;;;;;;;20.58;11.50;;;;;;;0.78;71.02;95411.88;4764768;30;20083;-53
2021/01/08 07:43:03;;;;;;;20.38;11.05;;;;;;;0.55;71.53;95400.09;4763697;30;20090;-50
2021/01/08 07:45:49;;;;;;;18.48;11.43;;;;;;;0.76;70.84;95407.88;4760951;30;20052;-48
2021/01/08 07:48:17;;;;;;;18.10;9.82;;;;;;;0.62;71.30;95413.09;4767544;30;20418;-49
2021/01/08 07:51:07;;;;;;;21.30;11.48;;;;;;;0.67;70.80;95402.38;4767590;30;20068;-49
2021/01/08 07:53:43;;;;;;;20.20;10.55;;;;;;;0.45;72.14;95418.81;4768118;29;20090;-49
2021/01/08 07:56:23;;;;;;;17.73;10.55;;;;;;;0.26;72.98;95410.75;4767272;29;20502;-49
2021/01/08 07:59:00;;;;;;;18.90;10.48;;;;;;;0.32;72.57;95422.91;4767885;29;20502;-53
2021/01/08 08:01:27;;;;;;;17.50;10.63;;;;;;;0.52;71.62;95419.31;4766103;30;20063;-51
2021/01/08 08:04:20;;;;;;;18.83;10.23;;;;;;;0.64;71.66;95419.69;4766297;29;20474;-49
2021/01/08 08:06:49;;;;;;;18.95;10.52;;;;;;;0.78;70.67;95421.69;4772967;30;20591;-49
2021/01/08 08:09:17;;;;;;;18.27;10.77;;;;;;;0.75;70.75;95431.06;4766776;29;20067;-50
2021/01/08 08:11:43;;;;;;;20.15;11.18;;;;;;;0.43;71.25;95428.97;4766895;30;20064;-49
2021/01/08 08:14:18;;;;;;;18.75;10.65;;;;;;;0.77;70.72;95430.78;4767194;30;20130;-49
2021/01/08 08:16:45;;;;;;;19.52;10.70;;;;;;;0.76;70.29;95429.19;4767866;30;20063;-54
2021/01/08 08:19:13;;;;;;;19.13;11.18;;;;;;;0.85;70.45;95432.84;4754529;29;20067;-50
2021/01/08 08:21:50;;;;;;;20.15;10.98;;;;;;;0.77;70.80;95441.41;4761948;30;20056;-50
2021/01/08 08:24:17;;;;;;;20.70;11.43;;;;;;;0.84;70.43;95444.53;4766971;30;20457;-51
2021/01/08 08:26:49;;;;;;;20.48;11.68;;;;;;;0.75;70.25;95438.22;4766684;30;22663;-52
2021/01/08 08:29:17;;;;;;;18.90;11.40;;;;;;;0.79;69.90;95444.59;4763295;30;20056;-48
2021/01/08 08:31:46;;;;;;;20.40;11.35;;;;;;;0.76;70.17;95445.16;4762792;30;20078;-48
2021/01/08 08:34:24;;;;;;;22.48;12.82;;;;;;;0.80;69.52;95440.84;4766932;30;20876;-48
2021/01/08 08:36:50;;;;;;;22.48;11.98;;;;;;;0.56;69.27;95398.25;4754138;29;20475;-47
2021/01/08 08:39:17;;;;;;;20.08;11.32;;;;;;;1.06;69.05;95436.84;4767711;30;20514;-52
2021/01/08 08:41:45;;;;;;;20.92;11.45;;;;;;;0.72;69.43;95439.63;4766993;30;20201;-50
2021/01/08 08:44:20;;;;;;;19.92;11.43;;;;;;;1.02;68.92;95445.69;4768971;30;20039;-50
2021/01/08 08:46:50;;;;;;;19.00;11.02;;;;;;;1.06;68.12;95438.72;4769966;29;20575;-48
2021/01/08 08:49:19;;;;;;;21.15;11.93;;;;;;;0.95;68.58;95443.38;4770565;30;20055;-49
2021/01/08 08:51:47;;;;;;;20.75;11.52;;;;;;;1.03;68.37;95434.75;4769491;30;20483;-48
2021/01/08 08:54:14;;;;;;;19.48;11.27;;;;;;;0.95;69.25;95443.38;4769213;30;20059;-51
2021/01/08 08:56:53;;;;;;;20.38;10.95;;;;;;;1.12;69.09;95445.59;4769658;30;20063;-47
2021/01/08 08:59:39;;;;;;;20.13;11.52;;;;;;;1.06;68.17;95436.06;4769040;30;20055;-51
2021/01/08 09:02:07;;;;;;;17.75;10.55;;;;;;;0.96;68.07;95444.94;4767696;30;20051;-49
2021/01/08 09:04:34;;;;;;;19.20;10.90;;;;;;;1.19;68.01;95434.59;4769379;30;20064;-50
2021/01/08 09:07:12;;;;;;;19.25;10.90;;;;;;;1.21;67.34;95419.13;4768832;30;20498;-50
2021/01/08 09:09:44;;;;;;;17.88;10.63;;;;;;;0.82;68.55;95442.19;4757072;30;20183;-49
2021/01/08 09:12:34;;;;;;;20.10;11.57;;;;;;;1.05;68.61;95427.28;4768335;30;20517;-50
2021/01/08 09:15:06;;;;;;;21.35;12.15;;;;;;;1.05;68.79;95429.94;4769220;30;20085;-48
2021/01/08 09:17:39;;;;;;;19.08;10.93;;;;;;;1.22;66.97;95428.69;4767026;30;20144;-49
2021/01/08 09:20:12;;;;;;;18.02;10.70;;;;;;;1.17;67.56;95429.56;4769998;30;20159;-50
2021/01/08 09:22:39;;;;;;;18.43;10.53;;;;;;;1.27;67.70;95433.94;4767148;30;20105;-49
2021/01/08 09:25:07;;;;;;;19.35;10.82;;;;;;;1.21;67.80;95441.22;4768567;30;20721;-50
2021/01/08 09:27:36;;;;;;;17.55;10.40;;;;;;;1.12;67.71;95451.69;4767087;30;20056;-50
2021/01/08 09:30:08;;;;;;;17.63;10.88;;;;;;;1.22;67.23;95447.34;4767487;29;20511;-51
2021/01/08 09:32:36;;;;;;;17.75;10.50;;;;;;;1.14;67.40;95441.56;4770938;30;20498;-54
2021/01/08 09:35:09;;;;;;;18.08;10.30;;;;;;;1.10;67.47;95440.53;4769509;30;20052;-50
2021/01/08 09:37:59;;;;;;;17.08;9.90;;;;;;;0.95;67.49;95437.25;4768247;30;20070;-52
2021/01/08 09:40:25;;;;;;;17.60;11.00;;;;;;;1.15;67.82;95448.47;4758612;30;20446;-49
2021/01/08 09:42:52;;;;;;;17.02;9.25;;;;;;;1.03;67.56;95453.41;4769503;29;20407;-48
2021/01/08 09:45:24;;;;;;;16.70;9.57;;;;;;;0.93;67.42;95461.50;4762100;30;20134;-50
2021/01/08 09:47:52;;;;;;;16.70;10.10;;;;;;;0.91;68.83;95447.66;4759224;30;20051;-49
2021/01/08 09:50:29;;;;;;;18.15;11.00;;;;;;;1.07;67.46;95450.94;4764935;30;20055;-52
2021/01/08 09:52:58;;;;;;;16.30;9.85;;;;;;;0.70;68.79;95447.88;4768571;30;20055;-49
2021/01/08 09:55:29;;;;;;;17.58;10.10;;;;;;;1.00;68.25;95445.97;4767898;30;20083;-47
2021/01/08 09:58:01;;;;;;;18.30;10.02;;;;;;;1.15;67.43;95445.81;4758565;30;20056;-50
2021/01/08 10:00:32;;;;;;;15.55;9.57;;;;;;;1.11;67.89;95430.69;4766971;30;20098;-48
2021/01/08 10:03:16;;;;;;;17.10;9.95;;;;;;;1.36;67.37;95448.22;4769218;30;20146;-47
2021/01/08 10:05:42;;;;;;;16.42;9.65;;;;;;;1.49;66.84;95452.84;4767619;30;20058;-48
2021/01/08 10:08:18;;;;;;;19.00;9.93;;;;;;;1.44;66.51;95449.47;4765294;29;20059;-54
2021/01/08 10:10:45;;;;;;;18.13;9.70;;;;;;;1.32;65.94;95449.88;4769507;30;20067;-51
2021/01/08 10:13:17;;;;;;;16.83;9.70;;;;;;;1.27;66.73;95444.59;4762565;30;20104;-51
2021/01/08 10:15:47;;;;;;;15.05;9.02;;;;;;;1.38;66.65;95440.75;4770599;30;20058;-52
2021/01/08 10:18:20;;;;;;;15.80;9.43;;;;;;;1.49;66.15;95452.06;4776933;29;20487;-56
2021/01/08 10:20:50;;;;;;;15.23;9.18;;;;;;;1.49;65.33;95447.53;4767439;30;20097;-54
2021/01/08 10:23:20;;;;;;;17.08;10.05;;;;;;;1.28;66.17;95446.19;4768099;30;20079;-52
2021/01/08 10:25:48;;;;;;;16.77;10.13;;;;;;;1.50;66.52;95449.13;4765689;30;20085;-51
2021/01/08 10:28:14;;;;;;;18.17;9.85;;;;;;;1.39;65.64;95447.66;4765278;30;20063;-56
2021/01/08 10:30:42;;;;;;;16.70;9.48;;;;;;;1.59;65.12;95458.09;4767594;30;20048;-54
2021/01/08 10:33:09;;;;;;;15.70;8.98;;;;;;;1.63;64.97;95452.97;4764650;30;20477;-50
2021/01/08 10:35:36;;;;;;;14.55;8.60;;;;;;;1.69;64.67;95443.00;4768529;30;20117;-56
2021/01/08 10:38:04;;;;;;;14.95;8.63;;;;;;;1.74;64.15;95442.94;4767750;30;20056;-54
2021/01/08 10:40:30;;;;;;;15.23;9.05;;;;;;;1.73;63.95;95436.81;4763976;30;20059;-53
2021/01/08 10:42:57;;;;;;;16.38;9.55;;;;;;;1.74;64.36;95453.63;4758408;30;20052;-55
2021/01/08 10:45:24;;;;;;;16.10;9.15;;;;;;;1.85;64.14;95434.53;4767481;30;20488;-51
2021/01/08 10:47:50;;;;;;;14.30;8.55;;;;;;;1.66;64.03;95431.06;4765021;30;20060;-54
2021/01/08 10:50:20;;;;;;;14.73;9.18;;;;;;;1.99;63.29;95439.13;4759767;30;20499;-51
2021/01/08 10:52:46;;;;;;;14.65;8.45;;;;;;;2.01;63.30;95432.41;4768824;29;20442;-49
2021/01/08 10:55:24;;;;;;;14.25;8.40;;;;;;;1.92;62.97;95428.84;4766822;30;20055;-54
2021/01/08 10:57:50;;;;;;;14.02;8.80;;;;;;;1.99;63.24;95433.81;4765694;30;20060;-53
2021/01/08 11:00:19;;;;;;;14.57;9.18;;;;;;;2.17;62.45;95426.84;4767656;30;20117;-53
2021/01/08 11:02:50;;;;;;;14.35;9.20;;;;;;;1.88;63.04;95422.47;4768988;30;20396;-52
2021/01/08 11:05:17;;;;;;;14.23;9.10;;;;;;;2.10;62.22;95421.88;4765233;30;20723;-53
2021/01/08 11:07:43;;;;;;;13.80;8.57;;;;;;;1.82;62.79;95399.59;4768434;30;20063;-53
2021/01/08 11:10:10;;;;;;;15.10;8.82;;;;;;;1.95;62.77;95416.75;4767505;30;20056;-53
2021/01/08 11:12:37;;;;;;;13.77;8.95;;;;;;;2.04;63.37;95417.69;4760908;30;20060;-51
2021/01/08 11:15:05;;;;;;;16.15;8.55;;;;;;;2.32;61.90;95421.28;4754330;30;20076;-53
2021/01/08 11:17:32;;;;;;;14.27;8.90;;;;;;;2.30;60.93;95418.09;4767910;30;20131;-56
2021/01/08 11:19:59;;;;;;;14.63;9.00;;;;;;;2.04;62.04;95413.16;4762550;30;20861;-53
2021/01/08 11:22:26;;;;;;;15.73;9.20;;;;;;;1.94;62.15;95412.53;4768106;30;20055;-53
2021/01/08 11:24:52;;;;;;;17.80;10.90;;;;;;;2.00;62.84;95408.69;4766244;30;20051;-52
2021/01/08 11:27:19;;;;;;;16.27;9.45;;;;;;;2.32;62.20;95407.94;4751336;30;20530;-56
2021/01/08 11:29:45;;;;;;;13.73;8.88;;;;;;;2.46;60.69;95408.75;4768060;30;20063;-47
2021/01/08 11:32:12;;;;;;;12.43;7.88;;;;;;;2.24;59.99;95420.06;4766596;30;20051;-51
2021/01/08 11:34:39;;;;;;;13.95;8.23;;;;;;;2.25;60.46;95412.84;4763454;30;20062;-49
2021/01/08 11:37:07;;;;;;;11.30;7.50;;;;;;;2.59;58.81;95401.84;4768279;29;20576;-48